sensor_id;sensor_type;location;lat;lon;timestamp;P1;durP1;ratioP1;P2;durP2;ratioP2
71814;SDS011;59659;41.520;23.794;2023-06-10T00:00:59;16.70;;;5.73;;
71814;SDS011;59659;41.520;23.794;2023-06-10T00:02:11;16.93;;;5.47;;
71814;SDS011;59659;41.520;23.794;2023-06-10T00:03:23;8.67;;;4.93;;
71814;SDS011;59659;41.520;23.794;2023-06-10T00:04:35;11.90;;;4.93;;
71814;SDS011;59659;41.520;23.794;2023-06-10T00:05:48;9.13;;;4.40;;
71814;SDS011;59659;41.520;23.794;2023-06-10T00:07:00;7.73;;;4.87;;
71814;SDS011;59659;41.520;23.794;2023-06-10T00:08:11;8.47;;;4.23;;
71814;SDS011;59659;41.520;23.794;2023-06-10T00:09:23;6.40;;;4.00;;
71814;SDS011;59659;41.520;23.794;2023-06-10T00:10:34;8.43;;;4.63;;
71814;SDS011;59659;41.520;23.794;2023-06-10T00:11:47;10.60;;;4.40;;
71814;SDS011;59659;41.520;23.794;2023-06-10T00:12:59;7.73;;;4.40;;
71814;SDS011;59659;41.520;23.794;2023-06-10T00:14:10;9.00;;;4.13;;
71814;SDS011;59659;41.520;23.794;2023-06-10T00:15:22;6.07;;;4.20;;
71814;SDS011;59659;41.520;23.794;2023-06-10T00:16:33;6.27;;;4.03;;
71814;SDS011;59659;41.520;23.794;2023-06-10T00:17:45;4.87;;;3.50;;
71814;SDS011;59659;41.520;23.794;2023-06-10T00:18:58;7.40;;;4.07;;
71814;SDS011;59659;41.520;23.794;2023-06-10T00:20:12;5.73;;;3.60;;
71814;SDS011;59659;41.520;23.794;2023-06-10T00:21:24;7.53;;;3.33;;
71814;SDS011;59659;41.520;23.794;2023-06-10T00:22:35;10.23;;;4.00;;
71814;SDS011;59659;41.520;23.794;2023-06-10T00:23:47;5.67;;;3.97;;
71814;SDS011;59659;41.520;23.794;2023-06-10T00:24:59;5.60;;;3.87;;
71814;SDS011;59659;41.520;23.794;2023-06-10T00:26:11;6.83;;;3.37;;
71814;SDS011;59659;41.520;23.794;2023-06-10T00:27:23;5.20;;;3.30;;
71814;SDS011;59659;41.520;23.794;2023-06-10T00:28:35;9.10;;;3.90;;
71814;SDS011;59659;41.520;23.794;2023-06-10T00:29:46;5.50;;;3.33;;
71814;SDS011;59659;41.520;23.794;2023-06-10T00:30:58;7.17;;;3.87;;
71814;SDS011;59659;41.520;23.794;2023-06-10T00:32:10;5.00;;;3.33;;
71814;SDS011;59659;41.520;23.794;2023-06-10T00:33:21;5.50;;;3.10;;
71814;SDS011;59659;41.520;23.794;2023-06-10T00:34:33;5.17;;;3.57;;
71814;SDS011;59659;41.520;23.794;2023-06-10T00:35:44;8.27;;;4.63;;
71814;SDS011;59659;41.520;23.794;2023-06-10T00:36:56;5.80;;;3.67;;
71814;SDS011;59659;41.520;23.794;2023-06-10T00:38:07;6.73;;;3.43;;
71814;SDS011;59659;41.520;23.794;2023-06-10T00:39:19;8.23;;;3.83;;
71814;SDS011;59659;41.520;23.794;2023-06-10T00:40:30;6.03;;;3.70;;
71814;SDS011;59659;41.520;23.794;2023-06-10T00:41:42;5.27;;;3.93;;
71814;SDS011;59659;41.520;23.794;2023-06-10T00:42:53;18.50;;;4.60;;
71814;SDS011;59659;41.520;23.794;2023-06-10T00:44:05;6.63;;;3.87;;
71814;SDS011;59659;41.520;23.794;2023-06-10T00:45:16;7.57;;;4.17;;
71814;SDS011;59659;41.520;23.794;2023-06-10T00:46:28;5.83;;;3.90;;
71814;SDS011;59659;41.520;23.794;2023-06-10T00:47:40;7.87;;;4.80;;
71814;SDS011;59659;41.520;23.794;2023-06-10T00:48:52;7.77;;;3.93;;
71814;SDS011;59659;41.520;23.794;2023-06-10T00:50:04;6.23;;;3.93;;
71814;SDS011;59659;41.520;23.794;2023-06-10T00:51:16;7.70;;;4.33;;
71814;SDS011;59659;41.520;23.794;2023-06-10T00:52:28;15.30;;;5.00;;
71814;SDS011;59659;41.520;23.794;2023-06-10T00:53:40;8.60;;;3.93;;
71814;SDS011;59659;41.520;23.794;2023-06-10T00:54:52;5.40;;;3.60;;
71814;SDS011;59659;41.520;23.794;2023-06-10T00:56:04;7.13;;;3.70;;
71814;SDS011;59659;41.520;23.794;2023-06-10T00:57:16;8.97;;;4.33;;
71814;SDS011;59659;41.520;23.794;2023-06-10T00:58:27;6.60;;;3.20;;
71814;SDS011;59659;41.520;23.794;2023-06-10T00:59:39;6.43;;;3.97;;
71814;SDS011;59659;41.520;23.794;2023-06-10T01:00:51;7.83;;;3.90;;
71814;SDS011;59659;41.520;23.794;2023-06-10T01:02:03;8.50;;;4.23;;
71814;SDS011;59659;41.520;23.794;2023-06-10T01:03:15;8.37;;;4.50;;
71814;SDS011;59659;41.520;23.794;2023-06-10T01:04:29;11.23;;;4.83;;
71814;SDS011;59659;41.520;23.794;2023-06-10T01:05:40;8.23;;;4.53;;
71814;SDS011;59659;41.520;23.794;2023-06-10T01:09:39;10.87;;;4.33;;
71814;SDS011;59659;41.520;23.794;2023-06-10T01:10:57;6.03;;;4.07;;
71814;SDS011;59659;41.520;23.794;2023-06-10T01:12:31;9.67;;;4.60;;
71814;SDS011;59659;41.520;23.794;2023-06-10T01:13:43;7.50;;;3.73;;
71814;SDS011;59659;41.520;23.794;2023-06-10T01:14:55;6.27;;;4.03;;
71814;SDS011;59659;41.520;23.794;2023-06-10T01:16:06;6.43;;;3.50;;
71814;SDS011;59659;41.520;23.794;2023-06-10T01:17:18;8.20;;;3.80;;
71814;SDS011;59659;41.520;23.794;2023-06-10T01:18:30;6.20;;;3.70;;
71814;SDS011;59659;41.520;23.794;2023-06-10T01:19:42;7.53;;;4.30;;
71814;SDS011;59659;41.520;23.794;2023-06-10T01:20:55;9.03;;;4.47;;
71814;SDS011;59659;41.520;23.794;2023-06-10T01:22:07;6.87;;;3.93;;
71814;SDS011;59659;41.520;23.794;2023-06-10T01:23:19;11.00;;;4.60;;
71814;SDS011;59659;41.520;23.794;2023-06-10T01:24:30;8.50;;;4.50;;
71814;SDS011;59659;41.520;23.794;2023-06-10T01:26:08;6.63;;;4.27;;
71814;SDS011;59659;41.520;23.794;2023-06-10T01:27:17;8.53;;;4.13;;
71814;SDS011;59659;41.520;23.794;2023-06-10T01:28:31;7.67;;;4.13;;
71814;SDS011;59659;41.520;23.794;2023-06-10T01:29:45;5.97;;;4.03;;
71814;SDS011;59659;41.520;23.794;2023-06-10T01:32:21;7.03;;;4.73;;
71814;SDS011;59659;41.520;23.794;2023-06-10T01:33:36;6.33;;;4.23;;
71814;SDS011;59659;41.520;23.794;2023-06-10T01:34:48;8.83;;;4.70;;
71814;SDS011;59659;41.520;23.794;2023-06-10T01:36:00;5.50;;;3.30;;
71814;SDS011;59659;41.520;23.794;2023-06-10T01:37:13;9.00;;;4.07;;
71814;SDS011;59659;41.520;23.794;2023-06-10T01:38:27;7.80;;;4.20;;
71814;SDS011;59659;41.520;23.794;2023-06-10T01:39:42;8.40;;;4.07;;
71814;SDS011;59659;41.520;23.794;2023-06-10T01:40:53;13.03;;;4.53;;
71814;SDS011;59659;41.520;23.794;2023-06-10T01:42:06;8.57;;;3.67;;
71814;SDS011;59659;41.520;23.794;2023-06-10T01:43:20;11.07;;;5.27;;
71814;SDS011;59659;41.520;23.794;2023-06-10T01:44:31;7.63;;;4.10;;
71814;SDS011;59659;41.520;23.794;2023-06-10T01:45:43;7.03;;;4.10;;
71814;SDS011;59659;41.520;23.794;2023-06-10T01:46:54;7.00;;;4.50;;
71814;SDS011;59659;41.520;23.794;2023-06-10T01:48:06;9.07;;;4.77;;
71814;SDS011;59659;41.520;23.794;2023-06-10T01:49:18;9.73;;;3.83;;
71814;SDS011;59659;41.520;23.794;2023-06-10T01:50:30;8.00;;;4.47;;
71814;SDS011;59659;41.520;23.794;2023-06-10T01:51:41;9.77;;;4.70;;
71814;SDS011;59659;41.520;23.794;2023-06-10T01:52:53;7.67;;;4.50;;
71814;SDS011;59659;41.520;23.794;2023-06-10T01:54:04;7.80;;;4.90;;
71814;SDS011;59659;41.520;23.794;2023-06-10T01:55:16;10.90;;;4.77;;
71814;SDS011;59659;41.520;23.794;2023-06-10T01:56:28;10.83;;;4.50;;
71814;SDS011;59659;41.520;23.794;2023-06-10T01:57:39;11.50;;;4.77;;
71814;SDS011;59659;41.520;23.794;2023-06-10T01:58:51;9.43;;;4.57;;
71814;SDS011;59659;41.520;23.794;2023-06-10T02:00:06;8.30;;;4.90;;
71814;SDS011;59659;41.520;23.794;2023-06-10T02:01:19;6.63;;;4.10;;
71814;SDS011;59659;41.520;23.794;2023-06-10T02:02:30;9.67;;;5.60;;
71814;SDS011;59659;41.520;23.794;2023-06-10T02:03:42;10.33;;;5.20;;
71814;SDS011;59659;41.520;23.794;2023-06-10T02:04:54;8.53;;;5.63;;
71814;SDS011;59659;41.520;23.794;2023-06-10T02:06:05;11.60;;;5.57;;
71814;SDS011;59659;41.520;23.794;2023-06-10T02:07:17;10.30;;;4.67;;
71814;SDS011;59659;41.520;23.794;2023-06-10T02:08:29;9.43;;;6.23;;
71814;SDS011;59659;41.520;23.794;2023-06-10T02:09:41;9.30;;;5.23;;
71814;SDS011;59659;41.520;23.794;2023-06-10T02:10:53;11.67;;;5.77;;
71814;SDS011;59659;41.520;23.794;2023-06-10T02:12:05;11.37;;;5.93;;
71814;SDS011;59659;41.520;23.794;2023-06-10T02:13:17;10.30;;;4.90;;
71814;SDS011;59659;41.520;23.794;2023-06-10T02:14:29;10.07;;;4.70;;
71814;SDS011;59659;41.520;23.794;2023-06-10T02:15:41;11.00;;;5.33;;
71814;SDS011;59659;41.520;23.794;2023-06-10T02:16:52;8.47;;;4.70;;
71814;SDS011;59659;41.520;23.794;2023-06-10T02:18:07;10.73;;;4.50;;
71814;SDS011;59659;41.520;23.794;2023-06-10T02:19:18;11.47;;;5.70;;
71814;SDS011;59659;41.520;23.794;2023-06-10T02:20:32;7.43;;;4.83;;
71814;SDS011;59659;41.520;23.794;2023-06-10T02:21:44;8.50;;;4.83;;
71814;SDS011;59659;41.520;23.794;2023-06-10T02:22:56;6.87;;;4.50;;
71814;SDS011;59659;41.520;23.794;2023-06-10T02:24:08;8.30;;;4.90;;
71814;SDS011;59659;41.520;23.794;2023-06-10T02:25:20;12.30;;;5.67;;
71814;SDS011;59659;41.520;23.794;2023-06-10T02:26:31;8.13;;;4.20;;
71814;SDS011;59659;41.520;23.794;2023-06-10T02:27:43;18.03;;;5.57;;
71814;SDS011;59659;41.520;23.794;2023-06-10T02:28:54;7.60;;;4.63;;
71814;SDS011;59659;41.520;23.794;2023-06-10T02:30:06;12.30;;;5.03;;
71814;SDS011;59659;41.520;23.794;2023-06-10T02:31:20;6.70;;;3.83;;
71814;SDS011;59659;41.520;23.794;2023-06-10T02:32:32;10.17;;;5.07;;
71814;SDS011;59659;41.520;23.794;2023-06-10T02:33:44;9.97;;;4.63;;
71814;SDS011;59659;41.520;23.794;2023-06-10T02:34:55;9.27;;;5.50;;
71814;SDS011;59659;41.520;23.794;2023-06-10T02:36:07;7.87;;;4.67;;
71814;SDS011;59659;41.520;23.794;2023-06-10T02:37:18;8.00;;;4.47;;
71814;SDS011;59659;41.520;23.794;2023-06-10T02:38:30;11.07;;;5.57;;
71814;SDS011;59659;41.520;23.794;2023-06-10T02:39:41;9.97;;;5.13;;
71814;SDS011;59659;41.520;23.794;2023-06-10T02:40:53;9.67;;;4.77;;
71814;SDS011;59659;41.520;23.794;2023-06-10T02:42:05;10.40;;;4.60;;
71814;SDS011;59659;41.520;23.794;2023-06-10T02:43:16;12.37;;;4.83;;
71814;SDS011;59659;41.520;23.794;2023-06-10T02:44:28;9.80;;;4.60;;
71814;SDS011;59659;41.520;23.794;2023-06-10T02:45:39;7.90;;;4.10;;
71814;SDS011;59659;41.520;23.794;2023-06-10T02:46:51;8.47;;;4.10;;
71814;SDS011;59659;41.520;23.794;2023-06-10T02:48:03;8.93;;;4.40;;
71814;SDS011;59659;41.520;23.794;2023-06-10T02:49:14;10.90;;;4.10;;
71814;SDS011;59659;41.520;23.794;2023-06-10T02:50:26;8.53;;;4.40;;
71814;SDS011;59659;41.520;23.794;2023-06-10T02:51:38;8.57;;;4.83;;
71814;SDS011;59659;41.520;23.794;2023-06-10T02:52:49;6.53;;;4.20;;
71814;SDS011;59659;41.520;23.794;2023-06-10T02:54:01;7.30;;;4.30;;
71814;SDS011;59659;41.520;23.794;2023-06-10T02:55:13;11.20;;;5.07;;
71814;SDS011;59659;41.520;23.794;2023-06-10T02:56:25;9.40;;;4.47;;
71814;SDS011;59659;41.520;23.794;2023-06-10T02:57:37;11.03;;;4.00;;
71814;SDS011;59659;41.520;23.794;2023-06-10T02:58:48;7.07;;;4.57;;
71814;SDS011;59659;41.520;23.794;2023-06-10T03:00:01;6.87;;;4.50;;
71814;SDS011;59659;41.520;23.794;2023-06-10T03:01:13;6.77;;;4.40;;
71814;SDS011;59659;41.520;23.794;2023-06-10T03:02:25;7.43;;;4.03;;
71814;SDS011;59659;41.520;23.794;2023-06-10T03:03:39;8.03;;;3.97;;
71814;SDS011;59659;41.520;23.794;2023-06-10T03:04:55;7.90;;;4.27;;
71814;SDS011;59659;41.520;23.794;2023-06-10T03:06:06;7.87;;;4.50;;
71814;SDS011;59659;41.520;23.794;2023-06-10T03:07:18;5.77;;;3.97;;
71814;SDS011;59659;41.520;23.794;2023-06-10T03:08:29;6.90;;;4.07;;
71814;SDS011;59659;41.520;23.794;2023-06-10T03:09:41;6.63;;;4.00;;
71814;SDS011;59659;41.520;23.794;2023-06-10T03:10:56;7.33;;;3.90;;
71814;SDS011;59659;41.520;23.794;2023-06-10T03:12:07;6.80;;;4.00;;
71814;SDS011;59659;41.520;23.794;2023-06-10T03:13:19;7.70;;;4.37;;
71814;SDS011;59659;41.520;23.794;2023-06-10T03:14:31;7.10;;;3.90;;
71814;SDS011;59659;41.520;23.794;2023-06-10T03:15:42;6.13;;;3.80;;
71814;SDS011;59659;41.520;23.794;2023-06-10T03:16:54;8.30;;;5.10;;
71814;SDS011;59659;41.520;23.794;2023-06-10T03:18:05;7.33;;;4.00;;
71814;SDS011;59659;41.520;23.794;2023-06-10T03:19:18;7.90;;;4.00;;
71814;SDS011;59659;41.520;23.794;2023-06-10T03:20:30;5.73;;;4.00;;
71814;SDS011;59659;41.520;23.794;2023-06-10T03:21:43;5.77;;;3.87;;
71814;SDS011;59659;41.520;23.794;2023-06-10T03:22:55;5.83;;;3.63;;
71814;SDS011;59659;41.520;23.794;2023-06-10T03:24:06;11.13;;;4.77;;
71814;SDS011;59659;41.520;23.794;2023-06-10T03:25:18;8.03;;;4.47;;
71814;SDS011;59659;41.520;23.794;2023-06-10T03:26:31;9.97;;;4.70;;
71814;SDS011;59659;41.520;23.794;2023-06-10T03:27:43;5.90;;;3.87;;
71814;SDS011;59659;41.520;23.794;2023-06-10T03:28:55;6.23;;;3.93;;
71814;SDS011;59659;41.520;23.794;2023-06-10T03:30:06;6.13;;;3.97;;
71814;SDS011;59659;41.520;23.794;2023-06-10T03:31:18;5.93;;;3.73;;
71814;SDS011;59659;41.520;23.794;2023-06-10T03:32:30;7.53;;;5.00;;
71814;SDS011;59659;41.520;23.794;2023-06-10T03:33:42;9.07;;;4.70;;
71814;SDS011;59659;41.520;23.794;2023-06-10T03:34:53;6.30;;;4.20;;
71814;SDS011;59659;41.520;23.794;2023-06-10T03:36:08;6.27;;;4.30;;
71814;SDS011;59659;41.520;23.794;2023-06-10T03:37:20;9.47;;;3.50;;
71814;SDS011;59659;41.520;23.794;2023-06-10T03:38:31;7.70;;;3.80;;
71814;SDS011;59659;41.520;23.794;2023-06-10T03:39:43;7.07;;;3.73;;
71814;SDS011;59659;41.520;23.794;2023-06-10T03:40:54;10.83;;;4.60;;
71814;SDS011;59659;41.520;23.794;2023-06-10T03:42:06;10.00;;;4.03;;
71814;SDS011;59659;41.520;23.794;2023-06-10T03:43:18;4.43;;;2.83;;
71814;SDS011;59659;41.520;23.794;2023-06-10T03:44:29;6.57;;;3.30;;
71814;SDS011;59659;41.520;23.794;2023-06-10T03:45:41;6.77;;;3.50;;
71814;SDS011;59659;41.520;23.794;2023-06-10T03:46:53;5.77;;;3.50;;
71814;SDS011;59659;41.520;23.794;2023-06-10T03:48:04;6.03;;;3.53;;
71814;SDS011;59659;41.520;23.794;2023-06-10T03:49:17;4.80;;;3.33;;
71814;SDS011;59659;41.520;23.794;2023-06-10T03:50:29;5.73;;;3.53;;
71814;SDS011;59659;41.520;23.794;2023-06-10T03:51:40;10.17;;;3.67;;
71814;SDS011;59659;41.520;23.794;2023-06-10T03:52:52;5.30;;;3.20;;
71814;SDS011;59659;41.520;23.794;2023-06-10T03:54:03;8.30;;;4.27;;
71814;SDS011;59659;41.520;23.794;2023-06-10T03:55:15;7.00;;;3.83;;
71814;SDS011;59659;41.520;23.794;2023-06-10T03:56:27;7.47;;;4.40;;
71814;SDS011;59659;41.520;23.794;2023-06-10T03:57:39;6.63;;;3.60;;
71814;SDS011;59659;41.520;23.794;2023-06-10T03:58:51;5.63;;;3.73;;
71814;SDS011;59659;41.520;23.794;2023-06-10T04:00:02;6.57;;;3.70;;
71814;SDS011;59659;41.520;23.794;2023-06-10T04:01:19;7.27;;;4.40;;
71814;SDS011;59659;41.520;23.794;2023-06-10T04:02:32;6.03;;;4.43;;
71814;SDS011;59659;41.520;23.794;2023-06-10T04:03:44;9.37;;;4.43;;
71814;SDS011;59659;41.520;23.794;2023-06-10T04:04:56;9.63;;;4.97;;
71814;SDS011;59659;41.520;23.794;2023-06-10T04:06:07;9.77;;;5.40;;
71814;SDS011;59659;41.520;23.794;2023-06-10T04:07:19;27.13;;;5.50;;
71814;SDS011;59659;41.520;23.794;2023-06-10T04:08:31;10.37;;;4.90;;
71814;SDS011;59659;41.520;23.794;2023-06-10T04:09:44;11.20;;;4.67;;
71814;SDS011;59659;41.520;23.794;2023-06-10T04:10:55;9.07;;;4.67;;
71814;SDS011;59659;41.520;23.794;2023-06-10T04:12:07;6.83;;;4.20;;
71814;SDS011;59659;41.520;23.794;2023-06-10T04:13:20;17.97;;;5.93;;
71814;SDS011;59659;41.520;23.794;2023-06-10T04:14:31;12.00;;;4.93;;
71814;SDS011;59659;41.520;23.794;2023-06-10T04:15:43;16.33;;;5.83;;
71814;SDS011;59659;41.520;23.794;2023-06-10T04:16:55;15.83;;;4.67;;
71814;SDS011;59659;41.520;23.794;2023-06-10T04:18:07;8.73;;;4.40;;
71814;SDS011;59659;41.520;23.794;2023-06-10T04:19:19;17.30;;;5.67;;
71814;SDS011;59659;41.520;23.794;2023-06-10T04:20:32;12.03;;;4.47;;
71814;SDS011;59659;41.520;23.794;2023-06-10T04:21:45;18.40;;;4.70;;
71814;SDS011;59659;41.520;23.794;2023-06-10T04:22:56;13.60;;;5.87;;
71814;SDS011;59659;41.520;23.794;2023-06-10T04:24:08;13.77;;;5.93;;
71814;SDS011;59659;41.520;23.794;2023-06-10T04:25:19;13.27;;;4.90;;
71814;SDS011;59659;41.520;23.794;2023-06-10T04:26:31;14.93;;;6.70;;
71814;SDS011;59659;41.520;23.794;2023-06-10T04:27:43;16.07;;;6.13;;
71814;SDS011;59659;41.520;23.794;2023-06-10T04:28:54;23.37;;;6.97;;
71814;SDS011;59659;41.520;23.794;2023-06-10T04:30:06;17.10;;;6.73;;
71814;SDS011;59659;41.520;23.794;2023-06-10T04:31:18;14.63;;;6.43;;
71814;SDS011;59659;41.520;23.794;2023-06-10T04:32:29;25.17;;;7.83;;
71814;SDS011;59659;41.520;23.794;2023-06-10T04:33:41;15.20;;;6.93;;
71814;SDS011;59659;41.520;23.794;2023-06-10T04:34:53;18.77;;;7.07;;
71814;SDS011;59659;41.520;23.794;2023-06-10T04:36:04;24.27;;;6.97;;
71814;SDS011;59659;41.520;23.794;2023-06-10T04:37:17;10.43;;;5.23;;
71814;SDS011;59659;41.520;23.794;2023-06-10T04:38:29;12.70;;;6.00;;
71814;SDS011;59659;41.520;23.794;2023-06-10T04:39:42;20.77;;;5.83;;
71814;SDS011;59659;41.520;23.794;2023-06-10T04:40:53;20.53;;;6.10;;
71814;SDS011;59659;41.520;23.794;2023-06-10T04:42:05;15.73;;;6.50;;
71814;SDS011;59659;41.520;23.794;2023-06-10T04:43:17;20.83;;;6.97;;
71814;SDS011;59659;41.520;23.794;2023-06-10T04:44:28;16.27;;;6.37;;
71814;SDS011;59659;41.520;23.794;2023-06-10T04:45:42;15.83;;;7.10;;
71814;SDS011;59659;41.520;23.794;2023-06-10T04:46:56;15.53;;;5.93;;
71814;SDS011;59659;41.520;23.794;2023-06-10T04:48:08;11.50;;;6.23;;
71814;SDS011;59659;41.520;23.794;2023-06-10T04:49:19;14.17;;;6.87;;
71814;SDS011;59659;41.520;23.794;2023-06-10T04:50:31;23.23;;;7.27;;
71814;SDS011;59659;41.520;23.794;2023-06-10T04:51:44;13.60;;;6.93;;
71814;SDS011;59659;41.520;23.794;2023-06-10T04:52:55;13.60;;;7.30;;
71814;SDS011;59659;41.520;23.794;2023-06-10T04:54:09;14.80;;;7.83;;
71814;SDS011;59659;41.520;23.794;2023-06-10T04:55:21;14.50;;;6.90;;
71814;SDS011;59659;41.520;23.794;2023-06-10T04:56:33;15.33;;;7.90;;
71814;SDS011;59659;41.520;23.794;2023-06-10T04:57:44;13.90;;;6.60;;
71814;SDS011;59659;41.520;23.794;2023-06-10T04:58:56;19.17;;;8.30;;
71814;SDS011;59659;41.520;23.794;2023-06-10T05:00:08;10.23;;;5.60;;
71814;SDS011;59659;41.520;23.794;2023-06-10T05:01:19;16.77;;;6.93;;
71814;SDS011;59659;41.520;23.794;2023-06-10T05:02:31;15.60;;;6.83;;
71814;SDS011;59659;41.520;23.794;2023-06-10T05:03:43;13.20;;;6.40;;
71814;SDS011;59659;41.520;23.794;2023-06-10T05:04:54;11.43;;;5.83;;
71814;SDS011;59659;41.520;23.794;2023-06-10T05:06:06;19.90;;;6.93;;
71814;SDS011;59659;41.520;23.794;2023-06-10T05:07:17;13.50;;;6.57;;
71814;SDS011;59659;41.520;23.794;2023-06-10T05:08:29;17.00;;;6.17;;
71814;SDS011;59659;41.520;23.794;2023-06-10T05:09:40;13.60;;;5.90;;
71814;SDS011;59659;41.520;23.794;2023-06-10T05:10:52;12.83;;;5.63;;
71814;SDS011;59659;41.520;23.794;2023-06-10T05:12:04;13.63;;;7.07;;
71814;SDS011;59659;41.520;23.794;2023-06-10T05:13:16;17.07;;;7.40;;
71814;SDS011;59659;41.520;23.794;2023-06-10T05:14:28;12.63;;;6.87;;
71814;SDS011;59659;41.520;23.794;2023-06-10T05:15:39;16.43;;;6.83;;
71814;SDS011;59659;41.520;23.794;2023-06-10T05:16:51;12.87;;;5.97;;
71814;SDS011;59659;41.520;23.794;2023-06-10T05:18:03;11.60;;;6.47;;
71814;SDS011;59659;41.520;23.794;2023-06-10T05:19:14;13.87;;;5.53;;
71814;SDS011;59659;41.520;23.794;2023-06-10T05:20:27;14.00;;;6.60;;
71814;SDS011;59659;41.520;23.794;2023-06-10T05:21:40;15.73;;;6.97;;
71814;SDS011;59659;41.520;23.794;2023-06-10T05:22:51;11.63;;;6.23;;
71814;SDS011;59659;41.520;23.794;2023-06-10T05:24:03;9.17;;;5.83;;
71814;SDS011;59659;41.520;23.794;2023-06-10T05:25:15;12.67;;;7.10;;
71814;SDS011;59659;41.520;23.794;2023-06-10T05:26:26;10.00;;;5.63;;
71814;SDS011;59659;41.520;23.794;2023-06-10T05:27:38;12.43;;;5.73;;
71814;SDS011;59659;41.520;23.794;2023-06-10T05:28:51;10.77;;;5.57;;
71814;SDS011;59659;41.520;23.794;2023-06-10T05:30:03;12.77;;;5.60;;
71814;SDS011;59659;41.520;23.794;2023-06-10T05:31:15;10.33;;;6.03;;
71814;SDS011;59659;41.520;23.794;2023-06-10T05:32:27;10.03;;;5.73;;
71814;SDS011;59659;41.520;23.794;2023-06-10T05:33:39;11.50;;;6.50;;
71814;SDS011;59659;41.520;23.794;2023-06-10T05:34:50;12.77;;;5.70;;
71814;SDS011;59659;41.520;23.794;2023-06-10T05:36:02;11.70;;;6.30;;
71814;SDS011;59659;41.520;23.794;2023-06-10T05:37:13;13.87;;;6.10;;
71814;SDS011;59659;41.520;23.794;2023-06-10T05:38:25;10.40;;;6.40;;
71814;SDS011;59659;41.520;23.794;2023-06-10T05:39:37;12.17;;;5.47;;
71814;SDS011;59659;41.520;23.794;2023-06-10T05:40:48;23.60;;;7.00;;
71814;SDS011;59659;41.520;23.794;2023-06-10T05:42:00;10.80;;;5.87;;
71814;SDS011;59659;41.520;23.794;2023-06-10T05:43:13;11.80;;;5.93;;
71814;SDS011;59659;41.520;23.794;2023-06-10T05:44:25;12.33;;;6.70;;
71814;SDS011;59659;41.520;23.794;2023-06-10T05:45:37;12.83;;;6.07;;
71814;SDS011;59659;41.520;23.794;2023-06-10T05:46:48;11.77;;;6.80;;
71814;SDS011;59659;41.520;23.794;2023-06-10T05:48:00;10.10;;;6.70;;
71814;SDS011;59659;41.520;23.794;2023-06-10T05:49:12;12.30;;;6.30;;
71814;SDS011;59659;41.520;23.794;2023-06-10T05:50:23;9.27;;;4.93;;
71814;SDS011;59659;41.520;23.794;2023-06-10T05:51:35;11.07;;;6.30;;
71814;SDS011;59659;41.520;23.794;2023-06-10T05:52:48;13.43;;;6.17;;
71814;SDS011;59659;41.520;23.794;2023-06-10T05:54:00;11.73;;;6.40;;
71814;SDS011;59659;41.520;23.794;2023-06-10T05:55:12;12.17;;;5.20;;
71814;SDS011;59659;41.520;23.794;2023-06-10T05:56:23;11.80;;;6.50;;
71814;SDS011;59659;41.520;23.794;2023-06-10T05:57:36;12.83;;;6.00;;
71814;SDS011;59659;41.520;23.794;2023-06-10T05:58:48;12.33;;;6.33;;
71814;SDS011;59659;41.520;23.794;2023-06-10T05:59:59;9.37;;;5.87;;
71814;SDS011;59659;41.520;23.794;2023-06-10T06:01:11;11.40;;;6.50;;
71814;SDS011;59659;41.520;23.794;2023-06-10T06:02:23;10.20;;;6.17;;
71814;SDS011;59659;41.520;23.794;2023-06-10T06:03:34;10.67;;;6.20;;
71814;SDS011;59659;41.520;23.794;2023-06-10T06:04:46;13.50;;;7.20;;
71814;SDS011;59659;41.520;23.794;2023-06-10T06:05:58;13.43;;;6.57;;
71814;SDS011;59659;41.520;23.794;2023-06-10T06:07:09;12.30;;;7.03;;
71814;SDS011;59659;41.520;23.794;2023-06-10T06:08:21;10.60;;;6.67;;
71814;SDS011;59659;41.520;23.794;2023-06-10T06:09:32;9.43;;;5.93;;
71814;SDS011;59659;41.520;23.794;2023-06-10T06:10:44;12.13;;;6.70;;
71814;SDS011;59659;41.520;23.794;2023-06-10T06:11:56;15.83;;;6.03;;
71814;SDS011;59659;41.520;23.794;2023-06-10T06:13:08;12.07;;;5.97;;
71814;SDS011;59659;41.520;23.794;2023-06-10T06:14:19;11.17;;;6.67;;
71814;SDS011;59659;41.520;23.794;2023-06-10T06:15:31;10.73;;;6.00;;
71814;SDS011;59659;41.520;23.794;2023-06-10T06:16:42;10.87;;;6.20;;
71814;SDS011;59659;41.520;23.794;2023-06-10T06:17:54;10.10;;;6.10;;
71814;SDS011;59659;41.520;23.794;2023-06-10T06:19:07;9.10;;;6.70;;
71814;SDS011;59659;41.520;23.794;2023-06-10T06:20:20;9.70;;;6.13;;
71814;SDS011;59659;41.520;23.794;2023-06-10T06:21:31;12.77;;;6.90;;
71814;SDS011;59659;41.520;23.794;2023-06-10T06:22:43;12.27;;;6.30;;
71814;SDS011;59659;41.520;23.794;2023-06-10T06:23:54;14.37;;;6.23;;
71814;SDS011;59659;41.520;23.794;2023-06-10T06:25:06;10.23;;;5.67;;
71814;SDS011;59659;41.520;23.794;2023-06-10T06:26:19;14.07;;;6.90;;
71814;SDS011;59659;41.520;23.794;2023-06-10T06:27:30;12.27;;;6.60;;
71814;SDS011;59659;41.520;23.794;2023-06-10T06:28:42;9.90;;;6.07;;
71814;SDS011;59659;41.520;23.794;2023-06-10T06:29:53;7.73;;;5.30;;
71814;SDS011;59659;41.520;23.794;2023-06-10T06:31:06;10.30;;;6.80;;
71814;SDS011;59659;41.520;23.794;2023-06-10T06:32:18;10.43;;;7.30;;
71814;SDS011;59659;41.520;23.794;2023-06-10T06:33:30;11.83;;;7.10;;
71814;SDS011;59659;41.520;23.794;2023-06-10T06:34:41;15.20;;;7.47;;
71814;SDS011;59659;41.520;23.794;2023-06-10T06:35:53;13.93;;;6.53;;
71814;SDS011;59659;41.520;23.794;2023-06-10T06:37:05;12.27;;;6.73;;
71814;SDS011;59659;41.520;23.794;2023-06-10T06:38:16;10.70;;;6.13;;
71814;SDS011;59659;41.520;23.794;2023-06-10T06:39:28;11.93;;;6.73;;
71814;SDS011;59659;41.520;23.794;2023-06-10T06:40:40;11.83;;;6.60;;
71814;SDS011;59659;41.520;23.794;2023-06-10T06:41:51;10.27;;;6.43;;
71814;SDS011;59659;41.520;23.794;2023-06-10T06:43:03;11.77;;;6.47;;
71814;SDS011;59659;41.520;23.794;2023-06-10T06:44:14;11.43;;;6.70;;
71814;SDS011;59659;41.520;23.794;2023-06-10T06:45:26;11.20;;;6.60;;
71814;SDS011;59659;41.520;23.794;2023-06-10T06:46:38;9.63;;;5.83;;
71814;SDS011;59659;41.520;23.794;2023-06-10T06:47:49;9.40;;;6.10;;
71814;SDS011;59659;41.520;23.794;2023-06-10T06:49:01;13.20;;;6.43;;
71814;SDS011;59659;41.520;23.794;2023-06-10T06:50:13;8.97;;;5.73;;
71814;SDS011;59659;41.520;23.794;2023-06-10T06:51:24;10.67;;;5.70;;
71814;SDS011;59659;41.520;23.794;2023-06-10T06:52:36;8.10;;;5.90;;
71814;SDS011;59659;41.520;23.794;2023-06-10T06:53:47;9.97;;;5.57;;
71814;SDS011;59659;41.520;23.794;2023-06-10T06:55:01;8.30;;;5.83;;
71814;SDS011;59659;41.520;23.794;2023-06-10T06:56:13;9.27;;;6.07;;
71814;SDS011;59659;41.520;23.794;2023-06-10T06:57:24;8.17;;;5.43;;
71814;SDS011;59659;41.520;23.794;2023-06-10T06:58:36;10.23;;;5.70;;
71814;SDS011;59659;41.520;23.794;2023-06-10T06:59:48;10.20;;;6.00;;
71814;SDS011;59659;41.520;23.794;2023-06-10T07:00:59;9.77;;;5.47;;
71814;SDS011;59659;41.520;23.794;2023-06-10T07:02:11;9.53;;;5.43;;
71814;SDS011;59659;41.520;23.794;2023-06-10T07:03:23;7.70;;;5.47;;
71814;SDS011;59659;41.520;23.794;2023-06-10T07:04:34;9.23;;;5.77;;
71814;SDS011;59659;41.520;23.794;2023-06-10T07:05:46;7.57;;;5.40;;
71814;SDS011;59659;41.520;23.794;2023-06-10T07:06:58;7.53;;;5.00;;
71814;SDS011;59659;41.520;23.794;2023-06-10T07:08:10;8.17;;;4.97;;
71814;SDS011;59659;41.520;23.794;2023-06-10T07:09:23;7.60;;;4.93;;